sensor_id;sensor_type;location;lat;lon;timestamp;temperature;humidity
10276;DHT22;5183;51.190;6.820;2022-08-26T00:00:39;23.90;1.00
10276;DHT22;5183;51.190;6.820;2022-08-26T00:03:06;23.80;1.00
10276;DHT22;5183;51.190;6.820;2022-08-26T00:05:33;23.70;1.00
10276;DHT22;5183;51.190;6.820;2022-08-26T00:08:02;23.70;1.00
10276;DHT22;5183;51.190;6.820;2022-08-26T00:10:29;23.60;1.00
10276;DHT22;5183;51.190;6.820;2022-08-26T00:12:55;23.50;1.00
10276;DHT22;5183;51.190;6.820;2022-08-26T00:15:23;23.50;1.00
10276;DHT22;5183;51.190;6.820;2022-08-26T00:17:52;23.40;1.00
10276;DHT22;5183;51.190;6.820;2022-08-26T00:20:22;23.40;1.00
10276;DHT22;5183;51.190;6.820;2022-08-26T00:22:49;23.40;1.00
10276;DHT22;5183;51.190;6.820;2022-08-26T00:25:18;23.30;1.00
10276;DHT22;5183;51.190;6.820;2022-08-26T00:27:45;23.30;1.00
10276;DHT22;5183;51.190;6.820;2022-08-26T00:30:21;23.20;1.00
10276;DHT22;5183;51.190;6.820;2022-08-26T00:32:48;23.20;1.00
10276;DHT22;5183;51.190;6.820;2022-08-26T00:35:15;23.10;1.00
10276;DHT22;5183;51.190;6.820;2022-08-26T00:37:42;23.00;1.00
10276;DHT22;5183;51.190;6.820;2022-08-26T00:40:13;22.90;1.00
10276;DHT22;5183;51.190;6.820;2022-08-26T00:42:42;22.80;1.00
10276;DHT22;5183;51.190;6.820;2022-08-26T00:45:10;22.70;1.00
10276;DHT22;5183;51.190;6.820;2022-08-26T00:47:42;22.70;1.00
10276;DHT22;5183;51.190;6.820;2022-08-26T00:50:13;22.60;1.00
10276;DHT22;5183;51.190;6.820;2022-08-26T00:52:41;22.60;1.00
10276;DHT22;5183;51.190;6.820;2022-08-26T00:55:12;22.70;1.00
10276;DHT22;5183;51.190;6.820;2022-08-26T00:57:43;22.70;1.00
10276;DHT22;5183;51.190;6.820;2022-08-26T01:00:13;22.60;1.00
10276;DHT22;5183;51.190;6.820;2022-08-26T01:02:41;22.60;1.00
10276;DHT22;5183;51.190;6.820;2022-08-26T01:05:09;22.50;1.00
10276;DHT22;5183;51.190;6.820;2022-08-26T01:07:37;22.50;1.00
10276;DHT22;5183;51.190;6.820;2022-08-26T01:10:07;22.50;1.00
10276;DHT22;5183;51.190;6.820;2022-08-26T01:12:39;22.40;1.00
10276;DHT22;5183;51.190;6.820;2022-08-26T01:15:10;22.40;1.00
10276;DHT22;5183;51.190;6.820;2022-08-26T01:17:40;22.40;1.00
10276;DHT22;5183;51.190;6.820;2022-08-26T01:20:16;22.30;1.00
10276;DHT22;5183;51.190;6.820;2022-08-26T01:22:52;22.30;1.00
10276;DHT22;5183;51.190;6.820;2022-08-26T01:25:22;22.20;1.00
10276;DHT22;5183;51.190;6.820;2022-08-26T01:27:51;22.30;1.00
10276;DHT22;5183;51.190;6.820;2022-08-26T01:30:18;22.30;1.00
10276;DHT22;5183;51.190;6.820;2022-08-26T01:32:47;22.30;1.00
10276;DHT22;5183;51.190;6.820;2022-08-26T01:35:15;22.20;1.00
10276;DHT22;5183;51.190;6.820;2022-08-26T01:37:42;22.10;1.00
10276;DHT22;5183;51.190;6.820;2022-08-26T01:40:15;22.10;1.00
10276;DHT22;5183;51.190;6.820;2022-08-26T01:42:44;22.00;1.00
10276;DHT22;5183;51.190;6.820;2022-08-26T01:45:17;22.10;1.00
10276;DHT22;5183;51.190;6.820;2022-08-26T01:47:46;22.00;1.00
10276;DHT22;5183;51.190;6.820;2022-08-26T01:50:16;21.90;1.00
10276;DHT22;5183;51.190;6.820;2022-08-26T01:52:46;21.90;1.00
10276;DHT22;5183;51.190;6.820;2022-08-26T01:55:16;21.90;1.00
10276;DHT22;5183;51.190;6.820;2022-08-26T01:57:45;21.80;3.60
10276;DHT22;5183;51.190;6.820;2022-08-26T02:00:14;21.80;7.40
10276;DHT22;5183;51.190;6.820;2022-08-26T02:02:41;21.80;9.30
10276;DHT22;5183;51.190;6.820;2022-08-26T02:05:13;21.70;13.50
10276;DHT22;5183;51.190;6.820;2022-08-26T02:07:40;21.70;18.20
10276;DHT22;5183;51.190;6.820;2022-08-26T02:10:08;21.60;22.20
10276;DHT22;5183;51.190;6.820;2022-08-26T02:12:37;21.70;24.70
10276;DHT22;5183;51.190;6.820;2022-08-26T02:15:08;21.60;32.40
10276;DHT22;5183;51.190;6.820;2022-08-26T02:17:39;21.60;36.30
10276;DHT22;5183;51.190;6.820;2022-08-26T02:20:09;21.60;41.90
10276;DHT22;5183;51.190;6.820;2022-08-26T02:22:36;21.50;47.30
10276;DHT22;5183;51.190;6.820;2022-08-26T02:25:11;21.40;56.60
10276;DHT22;5183;51.190;6.820;2022-08-26T02:27:41;21.40;63.40
10276;DHT22;5183;51.190;6.820;2022-08-26T02:30:10;21.40;70.00
10276;DHT22;5183;51.190;6.820;2022-08-26T02:32:38;21.30;75.40
10276;DHT22;5183;51.190;6.820;2022-08-26T02:35:06;21.30;82.30
10276;DHT22;5183;51.190;6.820;2022-08-26T02:37:33;21.20;90.30
10276;DHT22;5183;51.190;6.820;2022-08-26T02:40:01;21.20;94.60
10276;DHT22;5183;51.190;6.820;2022-08-26T02:42:28;21.20;97.70
10276;DHT22;5183;51.190;6.820;2022-08-26T02:44:56;21.20;98.30
10276;DHT22;5183;51.190;6.820;2022-08-26T02:47:24;21.20;99.90
10276;DHT22;5183;51.190;6.820;2022-08-26T02:49:51;21.10;99.90
10276;DHT22;5183;51.190;6.820;2022-08-26T02:52:18;21.00;99.90
10276;DHT22;5183;51.190;6.820;2022-08-26T02:54:45;21.00;99.90
10276;DHT22;5183;51.190;6.820;2022-08-26T02:57:12;21.00;99.90
10276;DHT22;5183;51.190;6.820;2022-08-26T02:59:40;21.00;99.90
10276;DHT22;5183;51.190;6.820;2022-08-26T03:02:08;20.90;99.90
10276;DHT22;5183;51.190;6.820;2022-08-26T03:04:35;20.80;99.90
10276;DHT22;5183;51.190;6.820;2022-08-26T03:07:03;20.80;99.90
10276;DHT22;5183;51.190;6.820;2022-08-26T03:09:30;20.80;99.90
10276;DHT22;5183;51.190;6.820;2022-08-26T03:11:57;20.90;99.90
10276;DHT22;5183;51.190;6.820;2022-08-26T03:14:25;20.90;99.90
10276;DHT22;5183;51.190;6.820;2022-08-26T03:16:53;20.90;99.90
10276;DHT22;5183;51.190;6.820;2022-08-26T03:19:22;20.90;99.90
10276;DHT22;5183;51.190;6.820;2022-08-26T03:21:49;20.90;99.90
10276;DHT22;5183;51.190;6.820;2022-08-26T03:24:17;20.90;99.90
10276;DHT22;5183;51.190;6.820;2022-08-26T03:26:44;21.00;99.90
10276;DHT22;5183;51.190;6.820;2022-08-26T03:29:11;21.00;99.90
10276;DHT22;5183;51.190;6.820;2022-08-26T03:31:56;21.00;99.90
10276;DHT22;5183;51.190;6.820;2022-08-26T03:34:24;21.10;99.90
10276;DHT22;5183;51.190;6.820;2022-08-26T03:36:52;21.20;99.90
10276;DHT22;5183;51.190;6.820;2022-08-26T03:39:19;21.10;99.90
10276;DHT22;5183;51.190;6.820;2022-08-26T03:41:46;21.10;99.90
10276;DHT22;5183;51.190;6.820;2022-08-26T03:44:13;21.10;99.90
10276;DHT22;5183;51.190;6.820;2022-08-26T03:46:40;21.10;99.90
10276;DHT22;5183;51.190;6.820;2022-08-26T03:49:07;21.10;99.90
10276;DHT22;5183;51.190;6.820;2022-08-26T03:51:36;21.10;99.90
10276;DHT22;5183;51.190;6.820;2022-08-26T03:54:03;21.10;99.90
10276;DHT22;5183;51.190;6.820;2022-08-26T03:56:31;21.10;99.90
10276;DHT22;5183;51.190;6.820;2022-08-26T03:58:59;21.20;99.90
10276;DHT22;5183;51.190;6.820;2022-08-26T04:01:27;21.10;99.90
10276;DHT22;5183;51.190;6.820;2022-08-26T04:03:55;21.10;99.90
10276;DHT22;5183;51.190;6.820;2022-08-26T04:06:27;21.10;99.90
10276;DHT22;5183;51.190;6.820;2022-08-26T04:08:57;21.10;99.90
10276;DHT22;5183;51.190;6.820;2022-08-26T04:11:26;21.10;99.90
10276;DHT22;5183;51.190;6.820;2022-08-26T04:13:56;21.10;99.90
10276;DHT22;5183;51.190;6.820;2022-08-26T04:16:24;21.10;99.90
10276;DHT22;5183;51.190;6.820;2022-08-26T04:18:51;21.10;99.90
10276;DHT22;5183;51.190;6.820;2022-08-26T04:21:18;21.10;99.90
10276;DHT22;5183;51.190;6.820;2022-08-26T04:23:45;21.10;99.90
10276;DHT22;5183;51.190;6.820;2022-08-26T04:26:13;21.10;99.90
10276;DHT22;5183;51.190;6.820;2022-08-26T04:28:40;21.10;99.90
10276;DHT22;5183;51.190;6.820;2022-08-26T04:31:10;21.20;99.90
10276;DHT22;5183;51.190;6.820;2022-08-26T04:33:37;21.10;99.90
10276;DHT22;5183;51.190;6.820;2022-08-26T04:36:05;21.20;99.90
10276;DHT22;5183;51.190;6.820;2022-08-26T04:38:32;21.10;99.90
10276;DHT22;5183;51.190;6.820;2022-08-26T04:40:59;21.20;99.90
10276;DHT22;5183;51.190;6.820;2022-08-26T04:43:29;21.20;99.90
10276;DHT22;5183;51.190;6.820;2022-08-26T04:45:57;21.20;99.90
10276;DHT22;5183;51.190;6.820;2022-08-26T04:48:25;21.20;99.90
10276;DHT22;5183;51.190;6.820;2022-08-26T04:50:53;21.20;99.90
10276;DHT22;5183;51.190;6.820;2022-08-26T04:53:20;21.20;99.90
10276;DHT22;5183;51.190;6.820;2022-08-26T04:55:48;21.20;99.90
10276;DHT22;5183;51.190;6.820;2022-08-26T04:58:15;21.20;99.90
10276;DHT22;5183;51.190;6.820;2022-08-26T05:00:44;21.30;99.90
10276;DHT22;5183;51.190;6.820;2022-08-26T05:03:11;21.30;99.90
10276;DHT22;5183;51.190;6.820;2022-08-26T05:05:39;21.30;99.90
10276;DHT22;5183;51.190;6.820;2022-08-26T05:08:07;21.30;99.90
10276;DHT22;5183;51.190;6.820;2022-08-26T05:10:38;21.30;99.90
10276;DHT22;5183;51.190;6.820;2022-08-26T05:13:05;21.30;99.90
10276;DHT22;5183;51.190;6.820;2022-08-26T05:15:33;21.30;99.90
10276;DHT22;5183;51.190;6.820;2022-08-26T05:18:02;21.30;99.90
10276;DHT22;5183;51.190;6.820;2022-08-26T05:20:29;21.40;99.90
10276;DHT22;5183;51.190;6.820;2022-08-26T05:22:58;21.40;99.90
10276;DHT22;5183;51.190;6.820;2022-08-26T05:25:26;21.40;99.90
10276;DHT22;5183;51.190;6.820;2022-08-26T05:27:53;21.50;99.90
10276;DHT22;5183;51.190;6.820;2022-08-26T05:30:20;21.40;99.90
10276;DHT22;5183;51.190;6.820;2022-08-26T05:32:47;21.40;99.90
10276;DHT22;5183;51.190;6.820;2022-08-26T05:35:16;21.50;99.90
10276;DHT22;5183;51.190;6.820;2022-08-26T05:37:43;21.50;99.90
10276;DHT22;5183;51.190;6.820;2022-08-26T05:40:10;21.50;99.90
10276;DHT22;5183;51.190;6.820;2022-08-26T05:42:37;21.50;99.90
10276;DHT22;5183;51.190;6.820;2022-08-26T05:45:05;21.50;97.90
10276;DHT22;5183;51.190;6.820;2022-08-26T05:47:32;21.50;99.90
10276;DHT22;5183;51.190;6.820;2022-08-26T05:50:00;21.60;97.60
10276;DHT22;5183;51.190;6.820;2022-08-26T05:52:31;21.60;97.70
10276;DHT22;5183;51.190;6.820;2022-08-26T05:54:58;21.60;97.30
10276;DHT22;5183;51.190;6.820;2022-08-26T05:57:27;21.60;91.80
10276;DHT22;5183;51.190;6.820;2022-08-26T05:59:55;21.60;92.70
10276;DHT22;5183;51.190;6.820;2022-08-26T06:02:22;21.70;91.90
10276;DHT22;5183;51.190;6.820;2022-08-26T06:04:49;21.70;88.50
10276;DHT22;5183;51.190;6.820;2022-08-26T06:07:16;21.80;83.70
10276;DHT22;5183;51.190;6.820;2022-08-26T06:10:05;21.70;87.10
10276;DHT22;5183;51.190;6.820;2022-08-26T06:12:32;21.70;90.70
10276;DHT22;5183;51.190;6.820;2022-08-26T06:14:59;21.80;90.00
10276;DHT22;5183;51.190;6.820;2022-08-26T06:17:26;21.80;88.40
10276;DHT22;5183;51.190;6.820;2022-08-26T06:19:54;21.80;84.60
10276;DHT22;5183;51.190;6.820;2022-08-26T06:22:21;21.80;81.20
10276;DHT22;5183;51.190;6.820;2022-08-26T06:25:07;21.80;85.70
10276;DHT22;5183;51.190;6.820;2022-08-26T06:27:52;21.80;85.80
10276;DHT22;5183;51.190;6.820;2022-08-26T06:30:19;21.80;79.70
10276;DHT22;5183;51.190;6.820;2022-08-26T06:32:46;21.80;78.50
10276;DHT22;5183;51.190;6.820;2022-08-26T06:35:13;21.80;69.70
10276;DHT22;5183;51.190;6.820;2022-08-26T06:37:40;21.90;56.20
10276;DHT22;5183;51.190;6.820;2022-08-26T06:40:09;22.00;53.10
10276;DHT22;5183;51.190;6.820;2022-08-26T06:42:36;21.90;51.00
10276;DHT22;5183;51.190;6.820;2022-08-26T06:45:04;21.90;58.00
10276;DHT22;5183;51.190;6.820;2022-08-26T06:47:31;21.90;54.20
10276;DHT22;5183;51.190;6.820;2022-08-26T06:49:58;22.00;50.60
10276;DHT22;5183;51.190;6.820;2022-08-26T06:52:25;22.00;54.20
10276;DHT22;5183;51.190;6.820;2022-08-26T06:54:52;22.10;39.60
10276;DHT22;5183;51.190;6.820;2022-08-26T06:57:20;22.20;30.90
10276;DHT22;5183;51.190;6.820;2022-08-26T06:59:47;22.20;29.50
10276;DHT22;5183;51.190;6.820;2022-08-26T07:02:14;22.20;30.10
10276;DHT22;5183;51.190;6.820;2022-08-26T07:04:41;22.10;33.50
10276;DHT22;5183;51.190;6.820;2022-08-26T07:07:12;22.20;37.20
10276;DHT22;5183;51.190;6.820;2022-08-26T07:09:39;22.20;40.80
10276;DHT22;5183;51.190;6.820;2022-08-26T07:12:06;22.10;45.30
10276;DHT22;5183;51.190;6.820;2022-08-26T07:14:35;22.10;45.70
10276;DHT22;5183;51.190;6.820;2022-08-26T07:17:02;22.10;44.20
10276;DHT22;5183;51.190;6.820;2022-08-26T07:19:29;22.00;49.30
10276;DHT22;5183;51.190;6.820;2022-08-26T07:21:55;21.90;55.00
10276;DHT22;5183;51.190;6.820;2022-08-26T07:24:22;21.90;58.90
10276;DHT22;5183;51.190;6.820;2022-08-26T07:26:49;21.80;67.30
10276;DHT22;5183;51.190;6.820;2022-08-26T07:29:16;21.90;60.80
10276;DHT22;5183;51.190;6.820;2022-08-26T07:31:44;21.90;57.40
10276;DHT22;5183;51.190;6.820;2022-08-26T07:34:11;22.10;50.50
10276;DHT22;5183;51.190;6.820;2022-08-26T07:36:38;22.10;48.80
10276;DHT22;5183;51.190;6.820;2022-08-26T07:39:06;22.00;52.70
10276;DHT22;5183;51.190;6.820;2022-08-26T07:41:33;22.00;51.30
10276;DHT22;5183;51.190;6.820;2022-08-26T07:44:01;22.10;47.80
10276;DHT22;5183;51.190;6.820;2022-08-26T07:46:28;22.00;44.10
10276;DHT22;5183;51.190;6.820;2022-08-26T07:48:57;22.10;41.50
10276;DHT22;5183;51.190;6.820;2022-08-26T07:51:24;22.10;42.70
10276;DHT22;5183;51.190;6.820;2022-08-26T07:53:53;22.10;39.80
10276;DHT22;5183;51.190;6.820;2022-08-26T07:56:21;22.10;34.10
10276;DHT22;5183;51.190;6.820;2022-08-26T07:58:48;22.10;30.40
10276;DHT22;5183;51.190;6.820;2022-08-26T08:01:14;22.20;26.70
10276;DHT22;5183;51.190;6.820;2022-08-26T08:03:41;22.10;29.20
10276;DHT22;5183;51.190;6.820;2022-08-26T08:06:10;22.10;28.20
10276;DHT22;5183;51.190;6.820;2022-08-26T08:08:36;22.10;21.90
10276;DHT22;5183;51.190;6.820;2022-08-26T08:11:05;22.20;18.70
10276;DHT22;5183;51.190;6.820;2022-08-26T08:13:32;22.20;17.50
10276;DHT22;5183;51.190;6.820;2022-08-26T08:15:59;22.20;16.20
10276;DHT22;5183;51.190;6.820;2022-08-26T08:18:26;22.20;16.30
10276;DHT22;5183;51.190;6.820;2022-08-26T08:20:54;22.20;14.20
10276;DHT22;5183;51.190;6.820;2022-08-26T08:23:22;22.20;18.70
10276;DHT22;5183;51.190;6.820;2022-08-26T08:25:49;22.10;21.20
10276;DHT22;5183;51.190;6.820;2022-08-26T08:28:16;22.00;27.80
10276;DHT22;5183;51.190;6.820;2022-08-26T08:31:03;22.00;27.70
10276;DHT22;5183;51.190;6.820;2022-08-26T08:33:49;22.10;22.10
10276;DHT22;5183;51.190;6.820;2022-08-26T08:36:37;22.10;15.20
10276;DHT22;5183;51.190;6.820;2022-08-26T08:39:56;22.10;17.30
10276;DHT22;5183;51.190;6.820;2022-08-26T08:42:36;22.00;19.80
10276;DHT22;5183;51.190;6.820;2022-08-26T08:45:08;22.10;16.10
10276;DHT22;5183;51.190;6.820;2022-08-26T08:47:38;22.10;14.50
10276;DHT22;5183;51.190;6.820;2022-08-26T08:50:15;22.10;14.40
10276;DHT22;5183;51.190;6.820;2022-08-26T08:52:50;22.20;10.60
10276;DHT22;5183;51.190;6.820;2022-08-26T08:55:19;22.30;5.70
10276;DHT22;5183;51.190;6.820;2022-08-26T08:57:54;22.40;3.70
10276;DHT22;5183;51.190;6.820;2022-08-26T09:00:26;22.40;2.00
10276;DHT22;5183;51.190;6.820;2022-08-26T09:03:00;22.30;3.20
10276;DHT22;5183;51.190;6.820;2022-08-26T09:05:30;22.40;3.60
10276;DHT22;5183;51.190;6.820;2022-08-26T09:08:01;22.40;1.00
10276;DHT22;5183;51.190;6.820;2022-08-26T09:10:34;22.40;3.10
10276;DHT22;5183;51.190;6.820;2022-08-26T09:13:04;22.40;1.00
10276;DHT22;5183;51.190;6.820;2022-08-26T09:15:38;22.50;1.00
10276;DHT22;5183;51.190;6.820;2022-08-26T09:18:14;22.50;1.00
10276;DHT22;5183;51.190;6.820;2022-08-26T09:20:50;22.60;1.00
10276;DHT22;5183;51.190;6.820;2022-08-26T09:23:20;22.50;1.00
10276;DHT22;5183;51.190;6.820;2022-08-26T09:25:51;22.50;1.00
10276;DHT22;5183;51.190;6.820;2022-08-26T09:28:20;22.40;1.00
10276;DHT22;5183;51.190;6.820;2022-08-26T09:31:02;22.30;3.60
10276;DHT22;5183;51.190;6.820;2022-08-26T09:33:32;22.40;1.00
10276;DHT22;5183;51.190;6.820;2022-08-26T09:36:15;22.40;1.00
10276;DHT22;5183;51.190;6.820;2022-08-26T09:38:43;22.40;1.00
10276;DHT22;5183;51.190;6.820;2022-08-26T09:41:24;22.40;1.00
10276;DHT22;5183;51.190;6.820;2022-08-26T09:44:15;22.50;1.00
10276;DHT22;5183;51.190;6.820;2022-08-26T09:46:45;22.50;1.00
10276;DHT22;5183;51.190;6.820;2022-08-26T09:49:35;22.50;1.00
10276;DHT22;5183;51.190;6.820;2022-08-26T09:52:12;22.60;1.00
10276;DHT22;5183;51.190;6.820;2022-08-26T09:54:40;22.70;1.00
10276;DHT22;5183;51.190;6.820;2022-08-26T09:57:24;22.90;1.00
10276;DHT22;5183;51.190;6.820;2022-08-26T09:59:51;23.20;1.00
10276;DHT22;5183;51.190;6.820;2022-08-26T10:02:37;23.30;1.00
10276;DHT22;5183;51.190;6.820;2022-08-26T10:05:09;23.20;1.00
10276;DHT22;5183;51.190;6.820;2022-08-26T10:07:45;23.20;1.00
10276;DHT22;5183;51.190;6.820;2022-08-26T10:10:17;23.30;1.00
10276;DHT22;5183;51.190;6.820;2022-08-26T10:13:00;23.30;1.00
10276;DHT22;5183;51.190;6.820;2022-08-26T10:15:38;23.30;1.00
10276;DHT22;5183;51.190;6.820;2022-08-26T10:18:11;23.40;1.00
10276;DHT22;5183;51.190;6.820;2022-08-26T10:20:48;23.50;1.00
10276;DHT22;5183;51.190;6.820;2022-08-26T10:23:17;23.50;1.00
10276;DHT22;5183;51.190;6.820;2022-08-26T10:25:50;23.60;1.00
10276;DHT22;5183;51.190;6.820;2022-08-26T10:28:24;23.70;1.00
10276;DHT22;5183;51.190;6.820;2022-08-26T10:30:57;23.90;1.00
10276;DHT22;5183;51.190;6.820;2022-08-26T10:33:25;23.80;1.00
10276;DHT22;5183;51.190;6.820;2022-08-26T10:35:54;23.90;1.00
10276;DHT22;5183;51.190;6.820;2022-08-26T10:38:25;23.90;1.00
10276;DHT22;5183;51.190;6.820;2022-08-26T10:40:59;24.00;1.00
10276;DHT22;5183;51.190;6.820;2022-08-26T10:43:31;24.00;1.00
10276;DHT22;5183;51.190;6.820;2022-08-26T10:46:03;24.10;1.00
10276;DHT22;5183;51.190;6.820;2022-08-26T10:48:34;24.30;1.00
10276;DHT22;5183;51.190;6.820;2022-08-26T10:51:05;24.30;1.00
10276;DHT22;5183;51.190;6.820;2022-08-26T10:53:40;24.30;1.00
10276;DHT22;5183;51.190;6.820;2022-08-26T10:56:24;24.10;1.00
10276;DHT22;5183;51.190;6.820;2022-08-26T10:59:00;24.10;1.00
10276;DHT22;5183;51.190;6.820;2022-08-26T11:01:33;24.00;1.00
10276;DHT22;5183;51.190;6.820;2022-08-26T11:07:36;23.90;1.00
10276;DHT22;5183;51.190;6.820;2022-08-26T11:10:06;24.00;1.00
10276;DHT22;5183;51.190;6.820;2022-08-26T11:12:48;24.30;1.00
10276;DHT22;5183;51.190;6.820;2022-08-26T11:18:42;24.90;1.00
10276;DHT22;5183;51.190;6.820;2022-08-26T11:21:40;25.10;1.00
10276;DHT22;5183;51.190;6.820;2022-08-26T11:24:08;25.20;1.00
10276;DHT22;5183;51.190;6.820;2022-08-26T11:26:35;25.30;1.00
10276;DHT22;5183;51.190;6.820;2022-08-26T11:29:03;25.50;1.00
10276;DHT22;5183;51.190;6.820;2022-08-26T11:31:53;25.40;1.00
10276;DHT22;5183;51.190;6.820;2022-08-26T11:34:54;25.50;1.00
10276;DHT22;5183;51.190;6.820;2022-08-26T11:37:27;25.50;1.00
10276;DHT22;5183;51.190;6.820;2022-08-26T11:39:55;25.60;1.00
10276;DHT22;5183;51.190;6.820;2022-08-26T11:42:28;25.70;1.00
10276;DHT22;5183;51.190;6.820;2022-08-26T11:44:57;25.50;1.00
10276;DHT22;5183;51.190;6.820;2022-08-26T11:47:27;25.40;1.00
10276;DHT22;5183;51.190;6.820;2022-08-26T11:50:13;25.20;1.00
10276;DHT22;5183;51.190;6.820;2022-08-26T11:52:52;25.10;1.00
10276;DHT22;5183;51.190;6.820;2022-08-26T11:55:20;25.00;1.00
10276;DHT22;5183;51.190;6.820;2022-08-26T11:57:50;24.90;1.00
10276;DHT22;5183;51.190;6.820;2022-08-26T12:00:19;24.90;1.00
10276;DHT22;5183;51.190;6.820;2022-08-26T12:02:47;24.90;1.00
10276;DHT22;5183;51.190;6.820;2022-08-26T12:05:21;24.90;1.00
10276;DHT22;5183;51.190;6.820;2022-08-26T12:07:50;24.70;1.00
10276;DHT22;5183;51.190;6.820;2022-08-26T12:10:27;24.80;1.00
10276;DHT22;5183;51.190;6.820;2022-08-26T12:12:56;24.80;1.00
10276;DHT22;5183;51.190;6.820;2022-08-26T12:15:25;24.60;1.00
10276;DHT22;5183;51.190;6.820;2022-08-26T12:17:52;24.70;1.00
10276;DHT22;5183;51.190;6.820;2022-08-26T12:20:29;24.70;1.00
10276;DHT22;5183;51.190;6.820;2022-08-26T12:23:19;24.70;1.00
10276;DHT22;5183;51.190;6.820;2022-08-26T12:25:47;24.80;1.00
10276;DHT22;5183;51.190;6.820;2022-08-26T12:28:13;24.90;1.00
10276;DHT22;5183;51.190;6.820;2022-08-26T12:30:40;25.00;1.00
10276;DHT22;5183;51.190;6.820;2022-08-26T12:33:23;25.20;1.00
10276;DHT22;5183;51.190;6.820;2022-08-26T12:35:52;25.20;1.00
10276;DHT22;5183;51.190;6.820;2022-08-26T12:38:19;25.30;1.00
10276;DHT22;5183;51.190;6.820;2022-08-26T12:40:47;25.20;1.00
10276;DHT22;5183;51.190;6.820;2022-08-26T12:43:41;25.20;1.00
10276;DHT22;5183;51.190;6.820;2022-08-26T12:46:10;25.00;1.00
10276;DHT22;5183;51.190;6.820;2022-08-26T12:48:40;24.90;1.00
10276;DHT22;5183;51.190;6.820;2022-08-26T12:51:21;24.70;1.00
10276;DHT22;5183;51.190;6.820;2022-08-26T12:53:49;24.90;1.00
10276;DHT22;5183;51.190;6.820;2022-08-26T12:56:28;25.10;1.00
10276;DHT22;5183;51.190;6.820;2022-08-26T12:59:03;25.40;1.00
10276;DHT22;5183;51.190;6.820;2022-08-26T13:01:37;25.60;1.00
10276;DHT22;5183;51.190;6.820;2022-08-26T13:04:04;25.80;1.00
10276;DHT22;5183;51.190;6.820;2022-08-26T13:06:33;25.90;1.00
10276;DHT22;5183;51.190;6.820;2022-08-26T13:09:03;25.70;1.00
10276;DHT22;5183;51.190;6.820;2022-08-26T13:11:33;25.60;1.00
10276;DHT22;5183;51.190;6.820;2022-08-26T13:14:02;25.30;1.00
10276;DHT22;5183;51.190;6.820;2022-08-26T13:16:29;25.10;1.00
10276;DHT22;5183;51.190;6.820;2022-08-26T13:18:57;25.00;1.00
10276;DHT22;5183;51.190;6.820;2022-08-26T13:21:27;24.70;1.00
10276;DHT22;5183;51.190;6.820;2022-08-26T13:23:56;24.50;1.00
10276;DHT22;5183;51.190;6.820;2022-08-26T13:26:23;24.30;1.00
10276;DHT22;5183;51.190;6.820;2022-08-26T13:28:50;24.30;1.00
10276;DHT22;5183;51.190;6.820;2022-08-26T13:31:17;24.00;1.00
10276;DHT22;5183;51.190;6.820;2022-08-26T13:33:45;23.90;1.00
10276;DHT22;5183;51.190;6.820;2022-08-26T13:36:13;23.90;1.00
10276;DHT22;5183;51.190;6.820;2022-08-26T13:38:40;23.80;1.00
10276;DHT22;5183;51.190;6.820;2022-08-26T13:41:08;23.70;1.00
10276;DHT22;5183;51.190;6.820;2022-08-26T13:43:35;23.70;1.00
10276;DHT22;5183;51.190;6.820;2022-08-26T13:46:02;23.70;1.00
10276;DHT22;5183;51.190;6.820;2022-08-26T13:48:30;23.80;1.00
10276;DHT22;5183;51.190;6.820;2022-08-26T13:50:58;23.80;1.00
10276;DHT22;5183;51.190;6.820;2022-08-26T13:53:27;23.90;1.00
10276;DHT22;5183;51.190;6.820;2022-08-26T13:55:55;23.90;1.00
10276;DHT22;5183;51.190;6.820;2022-08-26T13:58:24;23.80;1.00
10276;DHT22;5183;51.190;6.820;2022-08-26T14:00:51;23.80;1.00
10276;DHT22;5183;51.190;6.820;2022-08-26T14:03:18;23.70;1.00
10276;DHT22;5183;51.190;6.820;2022-08-26T14:05:45;23.60;1.00
10276;DHT22;5183;51.190;6.820;2022-08-26T14:08:12;23.50;1.00
10276;DHT22;5183;51.190;6.820;2022-08-26T14:10:39;23.50;1.00
10276;DHT22;5183;51.190;6.820;2022-08-26T14:13:06;23.40;1.00
10276;DHT22;5183;51.190;6.820;2022-08-26T14:15:36;23.30;1.00
10276;DHT22;5183;51.190;6.820;2022-08-26T14:18:04;23.40;1.00
10276;DHT22;5183;51.190;6.820;2022-08-26T14:20:33;23.40;1.00
10276;DHT22;5183;51.190;6.820;2022-08-26T14:23:00;23.30;1.00
10276;DHT22;5183;51.190;6.820;2022-08-26T14:25:28;23.20;1.00
10276;DHT22;5183;51.190;6.820;2022-08-26T14:27:56;23.20;1.00
10276;DHT22;5183;51.190;6.820;2022-08-26T14:30:24;23.20;1.00
10276;DHT22;5183;51.190;6.820;2022-08-26T14:32:54;23.20;1.00
10276;DHT22;5183;51.190;6.820;2022-08-26T14:35:25;23.20;1.00
10276;DHT22;5183;51.190;6.820;2022-08-26T14:37:52;23.20;1.00
10276;DHT22;5183;51.190;6.820;2022-08-26T14:40:20;23.20;1.00
10276;DHT22;5183;51.190;6.820;2022-08-26T14:42:50;23.10;1.00
10276;DHT22;5183;51.190;6.820;2022-08-26T14:45:22;23.20;1.00
10276;DHT22;5183;51.190;6.820;2022-08-26T14:47:51;23.50;1.00
10276;DHT22;5183;51.190;6.820;2022-08-26T14:50:23;23.90;1.00
10276;DHT22;5183;51.190;6.820;2022-08-26T14:52:51;24.50;1.00
10276;DHT22;5183;51.190;6.820;2022-08-26T14:55:38;25.00;1.00
10276;DHT22;5183;51.190;6.820;2022-08-26T14:58:05;25.50;1.00
10276;DHT22;5183;51.190;6.820;2022-08-26T15:00:34;25.90;1.00
10276;DHT22;5183;51.190;6.820;2022-08-26T15:03:03;26.30;1.00
10276;DHT22;5183;51.190;6.820;2022-08-26T15:05:30;26.50;1.00
10276;DHT22;5183;51.190;6.820;2022-08-26T15:07:58;26.40;1.00
10276;DHT22;5183;51.190;6.820;2022-08-26T15:10:25;26.50;1.00
10276;DHT22;5183;51.190;6.820;2022-08-26T15:12:52;26.50;1.00
10276;DHT22;5183;51.190;6.820;2022-08-26T15:15:19;26.50;1.00
10276;DHT22;5183;51.190;6.820;2022-08-26T15:17:46;26.50;1.00
10276;DHT22;5183;51.190;6.820;2022-08-26T15:20:14;26.40;1.00
10276;DHT22;5183;51.190;6.820;2022-08-26T15:22:41;26.00;1.00
10276;DHT22;5183;51.190;6.820;2022-08-26T15:25:08;25.80;1.00
10276;DHT22;5183;51.190;6.820;2022-08-26T15:27:36;25.40;1.00
10276;DHT22;5183;51.190;6.820;2022-08-26T15:30:04;25.10;1.00
10276;DHT22;5183;51.190;6.820;2022-08-26T15:32:31;25.10;1.00
10276;DHT22;5183;51.190;6.820;2022-08-26T15:34:59;24.90;1.00
10276;DHT22;5183;51.190;6.820;2022-08-26T15:37:27;24.80;1.00
10276;DHT22;5183;51.190;6.820;2022-08-26T15:39:54;24.80;1.00
10276;DHT22;5183;51.190;6.820;2022-08-26T15:42:21;24.70;1.00
10276;DHT22;5183;51.190;6.820;2022-08-26T15:44:49;24.60;1.00
10276;DHT22;5183;51.190;6.820;2022-08-26T15:47:17;24.50;1.00
10276;DHT22;5183;51.190;6.820;2022-08-26T15:49:44;24.40;1.00
10276;DHT22;5183;51.190;6.820;2022-08-26T15:52:11;24.30;1.00
10276;DHT22;5183;51.190;6.820;2022-08-26T15:54:39;24.10;1.00
10276;DHT22;5183;51.190;6.820;2022-08-26T15:57:06;24.10;1.00
10276;DHT22;5183;51.190;6.820;2022-08-26T15:59:33;23.90;1.00
10276;DHT22;5183;51.190;6.820;2022-08-26T16:02:00;23.90;1.00
10276;DHT22;5183;51.190;6.820;2022-08-26T16:04:27;23.80;1.00
10276;DHT22;5183;51.190;6.820;2022-08-26T16:06:57;23.80;1.00
10276;DHT22;5183;51.190;6.820;2022-08-26T16:09:24;23.60;1.00
10276;DHT22;5183;51.190;6.820;2022-08-26T16:11:55;23.50;1.00
10276;DHT22;5183;51.190;6.820;2022-08-26T16:14:22;23.50;1.00
10276;DHT22;5183;51.190;6.820;2022-08-26T16:16:50;23.50;1.00
10276;DHT22;5183;51.190;6.820;2022-08-26T16:19:16;23.50;1.00